createdAt,value
2023-08-14T00:01:25.845Z,20.72
2023-08-14T00:03:53.371Z,20.58
2023-08-14T00:06:26.584Z,20.71
2023-08-14T00:08:53.879Z,20.62
2023-08-14T00:11:30.296Z,20.48
2023-08-14T00:13:57.946Z,20.34
2023-08-14T00:16:28.598Z,20.28
2023-08-14T00:19:08.267Z,20.19
2023-08-14T00:21:44.105Z,20.15
2023-08-14T00:24:11.448Z,20.09
2023-08-14T00:26:39.935Z,20.08
2023-08-14T00:29:06.927Z,20.04
2023-08-14T00:31:34.082Z,19.98
2023-08-14T00:34:01.702Z,19.98
2023-08-14T00:36:28.838Z,19.99
2023-08-14T00:38:58.972Z,19.97
2023-08-14T00:41:26.308Z,19.96
2023-08-14T00:43:57.185Z,19.94
2023-08-14T00:46:25.677Z,19.97
2023-08-14T00:48:53.587Z,19.89
2023-08-14T00:51:22.246Z,19.99
2023-08-14T00:53:50.453Z,19.99
2023-08-14T00:56:19.361Z,19.98
2023-08-14T00:58:47.011Z,19.84
2023-08-14T01:01:16.019Z,19.87
2023-08-14T01:03:43.554Z,19.84
2023-08-14T01:06:10.773Z,19.80
2023-08-14T01:08:38.164Z,19.91
2023-08-14T01:11:13.804Z,19.93
2023-08-14T01:13:47.778Z,19.86
2023-08-14T01:16:20.958Z,19.77
2023-08-14T01:18:49.242Z,19.75
2023-08-14T01:21:32.111Z,19.66
2023-08-14T01:24:07.885Z,19.63
2023-08-14T01:26:37.261Z,19.58
2023-08-14T01:29:05.111Z,19.70
2023-08-14T01:31:32.269Z,19.67
2023-08-14T01:33:59.556Z,19.70
2023-08-14T01:36:31.862Z,19.74
2023-08-14T01:39:07.597Z,19.66
2023-08-14T01:41:43.185Z,19.61
2023-08-14T01:44:15.248Z,19.51
2023-08-14T01:46:44.591Z,19.57
2023-08-14T01:49:15.179Z,19.49
2023-08-14T01:51:42.888Z,19.52
2023-08-14T01:54:10.898Z,19.53
2023-08-14T01:56:39.279Z,19.52
2023-08-14T01:59:06.679Z,19.45
2023-08-14T02:01:33.744Z,19.50
2023-08-14T02:04:01.075Z,19.52
2023-08-14T02:06:28.097Z,19.52
2023-08-14T02:08:55.459Z,19.51
2023-08-14T02:11:22.372Z,19.49
2023-08-14T02:13:51.084Z,19.47
2023-08-14T02:16:20.310Z,19.48
2023-08-14T02:18:47.618Z,19.49
2023-08-14T02:21:14.628Z,19.50
2023-08-14T02:23:42.080Z,19.49
2023-08-14T02:26:09.626Z,19.50
2023-08-14T02:28:36.931Z,19.52
2023-08-14T02:31:06.219Z,19.52
2023-08-14T02:33:33.813Z,19.52
2023-08-14T02:36:01.009Z,19.51
2023-08-14T02:38:28.445Z,19.57
2023-08-14T02:40:55.413Z,19.61
2023-08-14T02:43:22.740Z,19.60
2023-08-14T02:45:49.800Z,19.62
2023-08-14T02:48:18.466Z,19.59
2023-08-14T02:50:45.476Z,19.59
2023-08-14T02:53:12.997Z,19.54
2023-08-14T02:55:39.902Z,19.50
2023-08-14T02:58:07.272Z,19.51
2023-08-14T03:00:34.632Z,19.51
2023-08-14T03:03:03.966Z,19.47
2023-08-14T03:05:32.452Z,19.47
2023-08-14T03:07:59.732Z,19.45
2023-08-14T03:10:26.839Z,19.46
2023-08-14T03:12:54.227Z,19.41
2023-08-14T03:15:21.200Z,19.37
2023-08-14T03:17:48.864Z,19.31
2023-08-14T03:20:16.635Z,19.19
2023-08-14T03:22:45.534Z,19.27
2023-08-14T03:25:12.297Z,19.22
2023-08-14T03:27:39.562Z,19.20
2023-08-14T03:30:08.003Z,19.15
2023-08-14T03:32:35.341Z,19.08
2023-08-14T03:35:02.339Z,19.14
2023-08-14T03:37:29.503Z,19.16
2023-08-14T03:40:00.600Z,19.21
2023-08-14T03:42:31.057Z,18.98
2023-08-14T03:44:58.032Z,19.18
2023-08-14T03:47:25.283Z,19.22
2023-08-14T03:49:52.382Z,19.16
2023-08-14T03:52:19.890Z,19.18
2023-08-14T03:54:47.170Z,19.10
2023-08-14T03:57:15.740Z,19.17
2023-08-14T03:59:42.767Z,19.24
2023-08-14T04:02:10.208Z,19.27
2023-08-14T04:04:37.207Z,19.23
2023-08-14T04:07:04.470Z,19.35
2023-08-14T04:09:31.724Z,19.39
2023-08-14T04:11:59.669Z,19.38
2023-08-14T04:14:28.554Z,19.51
2023-08-14T04:16:56.171Z,19.54
2023-08-14T04:19:23.494Z,19.59
2023-08-14T04:21:50.752Z,19.68
2023-08-14T04:24:17.929Z,19.78
2023-08-14T04:26:45.383Z,19.81
2023-08-14T04:29:12.407Z,19.81
2023-08-14T04:31:41.832Z,19.99
2023-08-14T04:34:10.470Z,20.12
2023-08-14T04:36:38.152Z,20.27
2023-08-14T04:39:05.708Z,20.45
2023-08-14T04:41:32.894Z,20.65
2023-08-14T04:44:00.404Z,21.03
2023-08-14T04:46:38.286Z,21.44
2023-08-14T04:49:13.672Z,21.77
2023-08-14T04:51:40.715Z,21.97
2023-08-14T04:54:07.838Z,22.25
2023-08-14T04:56:35.486Z,22.68
2023-08-14T04:59:02.557Z,23.54
2023-08-14T05:01:29.843Z,24.48
2023-08-14T05:03:57.148Z,25.57
2023-08-14T05:06:26.007Z,26.77
2023-08-14T05:08:52.959Z,27.89
2023-08-14T05:11:20.362Z,28.42
2023-08-14T05:13:47.703Z,28.94
2023-08-14T05:16:15.036Z,29.28
2023-08-14T05:18:42.138Z,29.56
2023-08-14T05:21:09.436Z,29.81
2023-08-14T05:23:38.174Z,30.05
2023-08-14T05:26:05.529Z,30.22
2023-08-14T05:28:33.313Z,30.36
2023-08-14T05:31:00.903Z,31.00
2023-08-14T05:33:28.012Z,31.97
2023-08-14T05:35:55.443Z,32.08
2023-08-14T05:38:22.396Z,30.96
2023-08-14T05:40:51.096Z,29.72
2023-08-14T05:43:18.635Z,28.98
2023-08-14T05:45:47.116Z,28.50
2023-08-14T05:48:15.168Z,28.05
2023-08-14T05:50:42.973Z,27.78
2023-08-14T05:53:14.087Z,27.55
2023-08-14T05:55:53.555Z,27.22
2023-08-14T05:58:20.655Z,27.17
2023-08-14T06:00:48.224Z,27.14
2023-08-14T06:03:25.620Z,26.97
2023-08-14T06:05:56.638Z,27.05
2023-08-14T06:08:23.751Z,26.88
2023-08-14T06:10:53.864Z,26.66
2023-08-14T06:13:21.006Z,26.45
2023-08-14T06:15:53.240Z,26.45
2023-08-14T06:18:20.385Z,26.61
2023-08-14T06:20:47.887Z,26.74
2023-08-14T06:23:14.826Z,26.96
2023-08-14T06:25:42.172Z,27.09
2023-08-14T06:28:13.270Z,27.20
2023-08-14T06:30:40.660Z,27.42
2023-08-14T06:33:07.686Z,27.68
2023-08-14T06:35:34.973Z,27.77
2023-08-14T06:38:05.116Z,27.97
2023-08-14T06:40:32.756Z,28.07
2023-08-14T06:43:00.011Z,27.92
2023-08-14T06:45:31.958Z,27.75
2023-08-14T06:47:59.122Z,27.57
2023-08-14T06:50:26.822Z,27.44
2023-08-14T06:52:54.151Z,27.69
2023-08-14T06:55:22.083Z,27.89
2023-08-14T06:57:51.161Z,27.93
2023-08-14T07:00:18.993Z,27.76
2023-08-14T07:02:48.620Z,27.81
2023-08-14T07:05:17.901Z,28.03
2023-08-14T07:07:44.982Z,28.25
2023-08-14T07:10:12.537Z,28.42
2023-08-14T07:12:45.154Z,28.29
2023-08-14T07:15:13.832Z,28.05
2023-08-14T07:17:44.918Z,28.18
2023-08-14T07:20:15.695Z,28.39
2023-08-14T07:22:48.474Z,28.64
2023-08-14T07:25:15.893Z,28.62
2023-08-14T07:27:42.892Z,28.69
2023-08-14T07:30:11.113Z,28.61
2023-08-14T07:32:38.194Z,28.58
2023-08-14T07:35:06.618Z,28.82
2023-08-14T07:37:34.966Z,29.08
2023-08-14T07:40:02.371Z,29.30
2023-08-14T07:42:29.458Z,29.26
2023-08-14T07:44:56.860Z,29.32
2023-08-14T07:47:23.945Z,29.31
2023-08-14T07:49:51.195Z,29.17
2023-08-14T07:52:18.548Z,29.23
2023-08-14T07:54:47.550Z,29.39
2023-08-14T07:57:14.631Z,29.57
2023-08-14T07:59:42.043Z,29.64
2023-08-14T08:02:09.083Z,29.68
2023-08-14T08:04:40.834Z,29.70
2023-08-14T08:07:08.402Z,29.81
2023-08-14T08:09:35.809Z,29.93
2023-08-14T08:12:04.817Z,30.12
2023-08-14T08:14:33.097Z,30.20
2023-08-14T08:17:00.506Z,30.20
2023-08-14T08:19:28.166Z,30.28
2023-08-14T08:21:55.565Z,30.42
2023-08-14T08:24:22.848Z,30.51
2023-08-14T08:26:49.985Z,30.69
2023-08-14T08:29:18.675Z,31.01
2023-08-14T08:31:45.786Z,31.19
2023-08-14T08:34:13.313Z,31.24
2023-08-14T08:36:40.199Z,31.22
2023-08-14T08:39:11.893Z,31.26
2023-08-14T08:41:44.804Z,31.46
2023-08-14T08:44:16.812Z,31.59
2023-08-14T08:46:51.918Z,31.52
2023-08-14T08:49:20.871Z,31.42
2023-08-14T08:51:49.796Z,31.48
2023-08-14T08:54:17.914Z,31.66
2023-08-14T08:56:46.951Z,31.84
2023-08-14T08:59:17.703Z,31.94
2023-08-14T09:01:48.134Z,31.80
2023-08-14T09:04:16.067Z,32.02
2023-08-14T09:06:43.534Z,32.09
2023-08-14T09:09:13.205Z,32.19
2023-08-14T09:11:42.452Z,32.20
2023-08-14T09:14:10.753Z,32.12
2023-08-14T09:16:41.500Z,32.37
2023-08-14T09:19:10.428Z,32.56
2023-08-14T09:21:38.514Z,32.65
2023-08-14T09:24:10.858Z,32.63
2023-08-14T09:26:37.938Z,32.68
2023-08-14T09:29:13.009Z,32.73
2023-08-14T09:31:43.639Z,32.86
2023-08-14T09:34:18.083Z,32.85
2023-08-14T09:36:45.302Z,32.92
2023-08-14T09:39:13.502Z,32.90
2023-08-14T09:41:40.505Z,32.78
2023-08-14T09:44:07.897Z,32.84
2023-08-14T09:46:35.105Z,32.86
2023-08-14T09:49:02.775Z,32.66
2023-08-14T09:51:33.597Z,32.32
2023-08-14T09:54:01.072Z,32.63
2023-08-14T09:56:28.222Z,32.66
2023-08-14T09:58:55.942Z,32.74
2023-08-14T10:01:24.064Z,33.01
2023-08-14T10:03:54.394Z,33.20
2023-08-14T10:06:24.696Z,33.26
2023-08-14T10:08:56.374Z,33.22
2023-08-14T10:11:27.330Z,33.30
2023-08-14T10:14:01.530Z,33.29
2023-08-14T10:16:34.619Z,33.22
2023-08-14T10:19:04.413Z,33.31
2023-08-14T10:21:34.325Z,33.51
2023-08-14T10:24:04.496Z,33.43
2023-08-14T10:26:33.094Z,33.30
2023-08-14T10:29:00.911Z,33.31
2023-08-14T10:31:29.097Z,33.42
2023-08-14T10:33:57.619Z,33.45
2023-08-14T10:36:28.212Z,33.35
2023-08-14T10:39:03.176Z,33.51
2023-08-14T10:41:38.000Z,33.65
2023-08-14T10:44:06.245Z,33.60
2023-08-14T10:46:37.634Z,33.46
2023-08-14T10:49:05.365Z,33.51
2023-08-14T10:51:34.327Z,33.57
2023-08-14T10:54:19.444Z,33.78
2023-08-14T10:56:52.833Z,33.61
2023-08-14T10:59:23.780Z,33.52
2023-08-14T11:01:53.181Z,33.66
2023-08-14T11:04:20.712Z,33.77
2023-08-14T11:07:03.980Z,33.72
2023-08-14T11:09:32.909Z,33.80
2023-08-14T11:12:06.668Z,33.79
2023-08-14T11:14:39.186Z,33.92
2023-08-14T11:17:06.495Z,34.06
2023-08-14T11:19:37.571Z,34.02
2023-08-14T11:22:05.206Z,33.85
2023-08-14T11:24:35.535Z,33.68
2023-08-14T11:27:04.329Z,33.68
2023-08-14T11:29:33.092Z,33.78
2023-08-14T11:32:01.699Z,33.95
2023-08-14T11:34:33.621Z,33.89
2023-08-14T11:39:32.971Z,33.95
2023-08-14T11:41:59.946Z,34.01
2023-08-14T11:44:28.966Z,34.05
2023-08-14T11:46:57.577Z,34.08
2023-08-14T11:49:25.903Z,34.16
2023-08-14T11:51:53.753Z,33.99
2023-08-14T11:54:22.128Z,33.77
2023-08-14T11:56:49.277Z,33.62
2023-08-14T11:59:18.037Z,33.57
2023-08-14T12:01:47.121Z,33.51
2023-08-14T12:04:14.535Z,33.59
2023-08-14T12:06:41.707Z,33.51
2023-08-14T12:09:11.043Z,33.52
2023-08-14T12:11:40.003Z,33.41
2023-08-14T12:14:10.301Z,33.37
2023-08-14T12:16:41.050Z,33.19
2023-08-14T12:19:12.593Z,33.26
2023-08-14T12:21:39.995Z,33.39
2023-08-14T12:24:07.726Z,33.53
2023-08-14T12:26:41.693Z,33.54
2023-08-14T12:29:09.410Z,33.50
2023-08-14T12:31:36.764Z,33.38
2023-08-14T12:34:07.271Z,33.44
2023-08-14T12:36:36.389Z,33.55
2023-08-14T12:39:04.183Z,33.55
2023-08-14T12:41:31.577Z,33.42
2023-08-14T12:43:59.001Z,33.28
2023-08-14T12:46:26.832Z,33.27
2023-08-14T12:48:55.423Z,33.43
2023-08-14T12:51:22.735Z,33.54
2023-08-14T12:53:51.753Z,33.51
2023-08-14T12:56:19.230Z,33.41
2023-08-14T12:58:49.963Z,33.24
2023-08-14T13:01:17.461Z,33.14
2023-08-14T13:03:44.940Z,33.12
2023-08-14T13:06:12.075Z,33.11
2023-08-14T13:08:41.726Z,33.14
2023-08-14T13:11:10.081Z,33.19
2023-08-14T13:13:37.677Z,33.05
2023-08-14T13:16:05.001Z,33.04
2023-08-14T13:18:32.466Z,33.02
2023-08-14T13:20:59.750Z,33.09
2023-08-14T13:23:27.242Z,33.14
2023-08-14T13:25:54.371Z,32.99
2023-08-14T13:28:23.014Z,32.98
2023-08-14T13:30:52.852Z,33.04
2023-08-14T13:33:20.176Z,33.10
2023-08-14T13:35:47.666Z,33.11
2023-08-14T13:38:15.025Z,33.20
2023-08-14T13:40:43.805Z,33.10
2023-08-14T13:43:11.075Z,32.99
2023-08-14T13:45:39.699Z,32.99
2023-08-14T13:48:10.276Z,33.11
2023-08-14T13:50:43.048Z,33.15
2023-08-14T13:53:11.073Z,33.13
2023-08-14T13:55:44.776Z,33.20
2023-08-14T13:58:14.268Z,33.05
2023-08-14T14:00:43.117Z,32.93
2023-08-14T14:03:10.773Z,32.98
2023-08-14T14:05:39.575Z,33.02
2023-08-14T14:08:07.222Z,32.81
2023-08-14T14:10:39.602Z,32.78
2023-08-14T14:13:07.152Z,32.75
2023-08-14T14:15:34.195Z,32.81
2023-08-14T14:18:04.013Z,32.88
2023-08-14T14:20:31.062Z,32.81
2023-08-14T14:22:58.348Z,32.78
2023-08-14T14:25:25.353Z,32.85
2023-08-14T14:27:52.822Z,32.91
2023-08-14T14:30:19.871Z,32.90
2023-08-14T14:32:47.314Z,32.83
2023-08-14T14:35:15.714Z,32.78
2023-08-14T14:37:43.137Z,32.73
2023-08-14T14:40:10.950Z,32.80
2023-08-14T14:42:38.371Z,32.88
2023-08-14T14:45:06.518Z,32.84
2023-08-14T14:47:35.001Z,32.84
2023-08-14T14:50:04.832Z,32.80
2023-08-14T14:52:40.933Z,32.73
2023-08-14T14:55:11.224Z,32.78
2023-08-14T14:57:41.364Z,32.86
2023-08-14T15:00:12.008Z,32.69
2023-08-14T15:02:39.432Z,32.74
2023-08-14T15:05:08.747Z,32.63
2023-08-14T15:07:48.904Z,32.51
2023-08-14T15:10:18.253Z,32.46
2023-08-14T15:12:51.534Z,32.27
2023-08-14T15:15:20.936Z,32.51
2023-08-14T15:17:51.674Z,32.54
2023-08-14T15:20:19.089Z,32.50
2023-08-14T15:22:48.241Z,32.55
2023-08-14T15:25:15.432Z,32.61
2023-08-14T15:27:45.154Z,32.65
2023-08-14T15:30:25.067Z,32.62
2023-08-14T15:32:54.362Z,32.59
2023-08-14T15:35:22.146Z,32.53
2023-08-14T15:37:58.646Z,32.43
2023-08-14T15:40:31.736Z,32.30
2023-08-14T15:43:04.426Z,32.39
2023-08-14T15:45:35.680Z,32.49
2023-08-14T15:48:03.156Z,32.46
2023-08-14T15:50:30.149Z,32.43
2023-08-14T15:52:58.931Z,32.61
2023-08-14T15:55:26.138Z,32.77
2023-08-14T15:57:57.019Z,32.96
2023-08-14T16:00:30.918Z,33.31
2023-08-14T16:02:58.395Z,33.67
2023-08-14T16:05:28.404Z,33.88
2023-08-14T16:07:57.918Z,34.12
2023-08-14T16:10:24.840Z,34.30
2023-08-14T16:12:52.543Z,34.45
2023-08-14T16:15:19.426Z,34.44
2023-08-14T16:17:46.818Z,34.51
2023-08-14T16:20:14.063Z,34.28
2023-08-14T16:22:47.292Z,33.90
2023-08-14T16:25:23.321Z,33.66
2023-08-14T16:27:50.500Z,33.33
2023-08-14T16:30:23.240Z,32.86
2023-08-14T16:32:53.222Z,32.70
2023-08-14T16:35:27.412Z,32.47
2023-08-14T16:37:57.008Z,32.29
2023-08-14T16:40:25.623Z,32.15
2023-08-14T16:42:55.952Z,32.02
2023-08-14T16:45:25.765Z,31.92
2023-08-14T16:47:55.794Z,31.78
2023-08-14T16:50:22.782Z,31.61
2023-08-14T16:52:50.263Z,31.46
2023-08-14T16:55:17.782Z,31.30
2023-08-14T16:57:47.960Z,31.31
2023-08-14T17:00:25.590Z,31.23
2023-08-14T17:02:58.067Z,31.12
2023-08-14T17:05:25.260Z,31.04
2023-08-14T17:07:54.775Z,30.96
2023-08-14T17:10:21.808Z,30.83
2023-08-14T17:12:56.473Z,30.81
2023-08-14T17:15:23.638Z,30.73
2023-08-14T17:17:51.329Z,30.65
2023-08-14T17:20:27.060Z,30.57
2023-08-14T17:23:04.637Z,30.43
2023-08-14T17:25:32.865Z,30.39
2023-08-14T17:28:10.211Z,30.33
2023-08-14T17:30:38.407Z,30.28
2023-08-14T17:33:08.909Z,30.22
2023-08-14T17:35:39.667Z,30.20
2023-08-14T17:38:06.903Z,30.14
2023-08-14T17:40:33.916Z,30.06
2023-08-14T17:43:06.286Z,30.01
2023-08-14T17:45:42.882Z,29.94
2023-08-14T17:48:15.190Z,29.84
2023-08-14T17:50:50.058Z,29.77
2023-08-14T17:53:17.510Z,29.69
2023-08-14T17:55:44.658Z,29.63
2023-08-14T17:58:17.499Z,29.55
2023-08-14T18:00:47.769Z,29.50
2023-08-14T18:03:15.549Z,29.40
2023-08-14T18:05:53.605Z,29.25
2023-08-14T18:08:43.163Z,28.62
2023-08-14T18:11:12.068Z,29.16
2023-08-14T18:13:44.083Z,29.14
2023-08-14T18:16:11.253Z,29.07
2023-08-14T18:18:42.967Z,28.93
2023-08-14T18:21:10.003Z,28.89
2023-08-14T18:23:37.532Z,28.78
2023-08-14T18:26:07.090Z,28.76
2023-08-14T18:28:34.371Z,28.69
2023-08-14T18:31:02.921Z,28.66
2023-08-14T18:33:33.502Z,28.62
2023-08-14T18:36:00.508Z,28.58
2023-08-14T18:38:28.200Z,28.56
2023-08-14T18:40:58.041Z,28.50
2023-08-14T18:43:29.319Z,28.36
2023-08-14T18:45:57.705Z,28.41
2023-08-14T18:48:26.382Z,28.35
2023-08-14T18:50:55.893Z,28.35
2023-08-14T18:53:26.869Z,28.31
2023-08-14T18:55:58.965Z,28.27
2023-08-14T18:58:26.394Z,28.16
2023-08-14T19:00:53.467Z,28.07
2023-08-14T19:03:20.854Z,28.02
2023-08-14T19:05:55.636Z,27.99
2023-08-14T19:08:26.452Z,27.93
2023-08-14T19:10:53.462Z,27.84
2023-08-14T19:13:20.876Z,27.80
2023-08-14T19:15:51.232Z,27.77
2023-08-14T19:18:18.656Z,27.72
2023-08-14T19:20:46.435Z,27.69
2023-08-14T19:23:15.307Z,27.67
2023-08-14T19:25:42.283Z,27.67
2023-08-14T19:28:21.710Z,27.66
2023-08-14T19:31:01.602Z,27.63
2023-08-14T19:33:29.132Z,27.60
2023-08-14T19:35:59.550Z,27.57
2023-08-14T19:38:28.200Z,27.54
2023-08-14T19:40:59.650Z,27.47
2023-08-14T19:43:27.103Z,27.45
2023-08-14T19:45:54.391Z,27.43
2023-08-14T19:48:21.743Z,27.35
2023-08-14T19:50:48.750Z,27.36
2023-08-14T19:53:16.538Z,27.32
2023-08-14T19:55:44.934Z,27.28
2023-08-14T19:58:14.393Z,27.26
2023-08-14T20:00:41.377Z,27.24
2023-08-14T20:03:09.025Z,27.18
2023-08-14T20:05:36.441Z,27.18
2023-08-14T20:08:05.511Z,27.13
2023-08-14T20:10:37.648Z,27.12
2023-08-14T20:13:08.725Z,27.02
2023-08-14T20:15:46.280Z,27.01
2023-08-14T20:18:14.492Z,26.96
2023-08-14T20:20:43.026Z,26.92
2023-08-14T20:23:11.277Z,26.89
2023-08-14T20:25:43.194Z,26.85
2023-08-14T20:28:14.112Z,26.74
2023-08-14T20:30:49.723Z,26.76
2023-08-14T20:33:17.181Z,26.61
2023-08-14T20:35:45.732Z,26.66
2023-08-14T20:38:13.674Z,26.52
2023-08-14T20:40:43.679Z,26.48
2023-08-14T20:43:14.027Z,26.45
2023-08-14T20:45:41.395Z,26.43
2023-08-14T20:48:09.264Z,26.40
2023-08-14T20:50:36.884Z,26.39
2023-08-14T20:53:06.859Z,26.37
2023-08-14T20:55:34.479Z,26.31
2023-08-14T20:58:01.772Z,26.31
2023-08-14T21:00:30.191Z,26.28
2023-08-14T21:03:00.145Z,26.24
2023-08-14T21:05:30.442Z,25.94
2023-08-14T21:07:59.088Z,26.08
2023-08-14T21:10:26.219Z,26.06
2023-08-14T21:12:53.413Z,26.00
2023-08-14T21:15:23.562Z,25.97
2023-08-14T21:17:52.269Z,25.94
2023-08-14T21:20:22.374Z,25.88
2023-08-14T21:22:50.007Z,25.72
2023-08-14T21:25:17.109Z,25.69
2023-08-14T21:27:47.769Z,25.64
2023-08-14T21:30:14.804Z,25.59
2023-08-14T21:32:42.055Z,25.52
2023-08-14T21:35:12.664Z,25.39
2023-08-14T21:37:43.677Z,25.21
2023-08-14T21:40:11.226Z,25.06
2023-08-14T21:42:38.581Z,25.04
2023-08-14T21:45:07.406Z,24.95
2023-08-14T21:47:34.870Z,24.92
2023-08-14T21:50:01.806Z,24.92
2023-08-14T21:52:31.474Z,24.94
2023-08-14T21:55:01.162Z,24.93
2023-08-14T21:57:28.538Z,24.92
2023-08-14T21:59:55.565Z,24.93
2023-08-14T22:02:22.995Z,24.90
2023-08-14T22:04:50.455Z,24.87
2023-08-14T22:07:18.016Z,24.81
2023-08-14T22:09:46.567Z,24.75
2023-08-14T22:12:13.975Z,24.69
2023-08-14T22:14:40.951Z,24.70
2023-08-14T22:17:09.614Z,24.70
2023-08-14T22:19:39.434Z,24.67
2023-08-14T22:22:13.888Z,24.66
2023-08-14T22:24:41.963Z,24.61
2023-08-14T22:27:18.382Z,24.58
2023-08-14T22:29:45.711Z,24.58
2023-08-14T22:32:15.170Z,24.53
2023-08-14T22:34:42.473Z,24.49
2023-08-14T22:37:10.029Z,24.40
2023-08-14T22:39:37.075Z,24.37
2023-08-14T22:42:10.341Z,24.22
2023-08-14T22:44:41.623Z,24.12
2023-08-14T22:47:08.867Z,24.13
2023-08-14T22:49:35.795Z,23.98
2023-08-14T22:52:03.389Z,23.94
2023-08-14T22:54:31.439Z,23.95
2023-08-14T22:56:58.658Z,23.95
2023-08-14T22:59:25.685Z,23.96
2023-08-14T23:01:54.322Z,23.99
2023-08-14T23:04:21.540Z,24.03
2023-08-14T23:06:48.909Z,24.04
2023-08-14T23:09:15.866Z,24.04
2023-08-14T23:11:43.124Z,24.04
2023-08-14T23:14:10.242Z,24.02
2023-08-14T23:16:37.525Z,24.01
2023-08-14T23:19:06.268Z,23.96
2023-08-14T23:21:33.727Z,23.82
2023-08-14T23:24:00.705Z,23.86
2023-08-14T23:26:28.129Z,23.80
2023-08-14T23:28:55.124Z,23.71
2023-08-14T23:31:22.399Z,23.66
2023-08-14T23:33:49.446Z,23.54
2023-08-14T23:36:18.075Z,23.44
2023-08-14T23:38:45.796Z,23.39
2023-08-14T23:41:13.151Z,23.33
2023-08-14T23:43:40.353Z,23.21
2023-08-14T23:46:07.642Z,23.07
2023-08-14T23:48:34.501Z,23.06
2023-08-14T23:51:01.752Z,22.98
2023-08-14T23:53:30.031Z,22.90
2023-08-14T23:55:57.065Z,22.95
2023-08-14T23:58:24.044Z,22.93
